Covington, Iowa
Current Conditions -  °F | °C
As of 2:52 AM on Sunday 26 Oct 2014 (Local Time) from KCID Reporting Station
Clear Clear  
Wind Chill: 41°   Ceiling: Unl
Heat Index: 44°   Visibility: 10mi
Dew Point: 35°   Wind: 6mph
Humidity: 71%   Direction: 20°NNE
Pressure: 30.03"   Gusts: NA
Location:  42.0483°N, 91.7982°W
Report Text: KCID 260752Z AUTO 02005KT 10SM CLR 07/02 A3003 RMK AO2 SLP170 T00670017
Loading
Personal Weather Stations






























Interactive Weather Map New forecast layout! Learn more

10-Day Weather Forecast

Advertisements
Track Severe Weather on mobile